Winterhaven, California
Current Conditions -  °F | °C
As of 1:57 PM on Sunday 21 Dec 2014 (Local Time) from KNYL Reporting Station
Overcast Overcast  
Wind Chill: 67°   Ceiling: 18000
Heat Index: 67°   Visibility: 10mi
Dew Point: 40°   Wind: 10mph
Humidity: 37%   Direction: 20°NNE
Pressure: 30.05"   Gusts: NA
Location:  32.74°N, 114.63°W
Report Text: KNYL 212157Z 02009KT 10SM BKN180 OVC250 20/04 A3005 RMK AO2 SLP176 T01940044
Loading
Personal Weather Stations






























Interactive Weather Map New forecast layout! Learn more

10-Day Weather Forecast

Advertisements
Track Severe Weather on mobile